Time;durP1;ratioP1;P1;durP2;ratioP2;P2;SDS_P1;SDS_P2;PMS_P1;PMS_P2;Temp;Humidity;BMP_temperature;BMP_pressure;BME280_temperature;BME280_humidity;BME280_pressure;Samples;Min_cycle;Max_cycle;Signal;HPM_P1;HPM_P2
2021/11/25 11:30:25;;;;;;;20.77;2.33;;;;;;;9.21;67.79;101181.63;5129499;27;20223;-80
2021/11/25 11:32:51;;;;;;;13.77;1.70;;;;;;;9.35;66.44;101170.25;5110910;28;20039;-80
2021/11/25 11:35:22;;;;;;;13.15;3.03;;;;;;;9.49;63.03;101167.91;5112162;28;20103;-79
2021/11/25 11:37:56;;;;;;;10.77;1.73;;;;;;;9.57;63.90;101173.28;5093441;28;20024;-79
2021/11/25 11:40:23;;;;;;;14.27;1.85;;;;;;;9.63;64.87;101170.75;5110968;28;20034;-79
2021/11/25 11:42:51;;;;;;;14.33;2.33;;;;;;;9.73;63.34;101159.84;5111456;28;20023;-83
2021/11/25 11:45:17;;;;;;;15.07;1.88;;;;;;;9.74;64.31;101168.75;5110634;28;20073;-81
2021/11/25 11:47:42;;;;;;;17.10;1.48;;;;;;;9.84;62.83;101167.56;5094965;28;20160;-81
2021/11/25 11:50:10;;;;;;;9.50;1.20;;;;;;;10.00;62.85;101177.47;5111206;28;20492;-82
2021/11/25 11:52:53;;;;;;;12.13;1.40;;;;;;;10.03;63.78;101165.53;5113083;28;20077;-81
2021/11/25 11:55:34;;;;;;;17.45;1.70;;;;;;;9.91;66.61;101183.03;5107007;28;20377;-80
2021/11/25 11:57:59;;;;;;;19.52;2.42;;;;;;;9.66;68.26;101180.34;5112299;28;20185;-79
2021/11/25 12:00:25;;;;;;;14.02;1.70;;;;;;;9.48;69.17;101171.59;5110872;28;20024;-79
2021/11/25 12:02:52;;;;;;;13.65;1.60;;;;;;;9.30;68.73;101169.91;5112008;28;20031;-79
2021/11/25 12:05:39;;;;;;;11.27;1.73;;;;;;;9.32;69.37;101157.16;5092985;28;20020;-82
2021/11/25 12:08:17;;;;;;;16.40;2.10;;;;;;;9.28;68.85;101155.78;5091417;28;20073;-80
2021/11/25 12:10:54;;;;;;;12.05;1.50;;;;;;;9.29;67.27;101162.84;5090965;28;20028;-80
2021/11/25 12:13:20;;;;;;;8.15;1.33;;;;;;;9.30;67.84;101156.47;5094475;28;20024;-80
2021/11/25 12:15:45;;;;;;;19.08;2.50;;;;;;;9.23;68.41;101155.44;5090368;28;20020;-80
2021/11/25 12:18:30;;;;;;;15.07;2.50;;;;;;;9.27;68.99;101142.53;5092696;28;20507;-79
2021/11/25 12:20:57;;;;;;;16.45;2.65;;;;;;;9.23;70.55;101136.66;5089344;28;20024;-80
2021/11/25 12:23:37;;;;;;;20.27;3.53;;;;;;;9.23;71.25;101131.28;5090682;28;20032;-80
2021/11/25 12:26:03;;;;;;;23.95;3.03;;;;;;;9.23;70.61;101131.28;5094893;28;20024;-80
2021/11/25 12:28:31;;;;;;;20.45;2.42;;;;;;;9.26;68.80;101140.84;5097324;28;20059;-80
2021/11/25 12:33:46;;;;;;;15.70;2.33;;;;;;;9.36;68.82;101128.94;5091672;28;20036;-80
2021/11/25 12:36:37;;;;;;;15.60;2.45;;;;;;;9.44;67.62;101123.56;5091062;28;20472;-78
2021/11/25 12:39:05;;;;;;;18.63;1.80;;;;;;;9.40;67.05;101121.38;5091805;28;20024;-82
2021/11/25 12:41:31;;;;;;;12.02;1.52;;;;;;;9.39;66.51;101125.91;5081930;28;20025;-80
2021/11/25 12:43:57;;;;;;;12.85;1.73;;;;;;;9.25;66.93;101131.97;5076894;28;20054;-80
2021/11/25 12:46:22;;;;;;;14.52;1.50;;;;;;;9.21;67.79;101122.53;5076868;28;20020;-79
2021/11/25 12:48:51;;;;;;;16.48;2.60;;;;;;;9.10;68.71;101128.25;5077178;28;20024;-80
2021/11/25 12:51:29;;;;;;;13.07;1.40;;;;;;;9.05;69.65;101122.53;5078575;28;20025;-79
2021/11/25 12:53:57;;;;;;;10.90;1.60;;;;;;;8.97;69.55;101116.13;5076920;28;20234;-80
2021/11/25 12:56:30;;;;;;;11.10;1.75;;;;;;;8.96;68.34;101119.81;5077171;28;20025;-79
2021/11/25 12:59:02;;;;;;;16.08;2.05;;;;;;;8.91;68.76;101108.75;5078351;28;20060;-79
2021/11/25 13:01:38;;;;;;;15.20;1.35;;;;;;;9.00;68.18;101112.28;5079779;28;20029;-79
2021/11/25 13:04:14;;;;;;;9.98;1.40;;;;;;;9.10;68.58;101109.44;5080097;28;20028;-79
2021/11/25 13:06:43;;;;;;;21.00;2.05;;;;;;;9.45;69.34;101103.78;5084566;28;20039;-81
2021/11/25 13:09:13;;;;;;;11.75;1.70;;;;;;;9.95;65.71;101101.84;5083356;28;20035;-79
2021/11/25 13:11:40;;;;;;;17.23;1.90;;;;;;;10.65;65.58;101093.06;5085838;28;20028;-80
2021/11/25 13:14:13;;;;;;;17.10;1.92;;;;;;;11.16;66.17;101085.34;5085364;28;20024;-80
2021/11/25 13:16:51;;;;;;;11.63;1.73;;;;;;;12.03;64.15;101092.13;5085814;28;20036;-81
2021/11/25 13:19:18;;;;;;;16.83;2.50;;;;;;;12.23;61.41;101079.75;5076673;28;20112;-80
2021/11/25 13:21:49;;;;;;;13.68;2.13;;;;;;;11.94;60.01;101095.97;5076645;28;20173;-79
2021/11/25 13:24:22;;;;;;;13.38;1.98;;;;;;;12.04;59.57;101100.06;5076004;28;20094;-80
2021/11/25 13:27:06;;;;;;;19.77;1.92;;;;;;;12.08;58.89;101093.28;5076290;28;20029;-79
2021/11/25 13:29:51;;;;;;;21.13;3.35;;;;;;;12.03;59.03;101089.44;5074095;28;20451;-81
2021/11/25 13:32:23;;;;;;;18.85;2.42;;;;;;;11.95;57.39;101098.44;5076238;28;20036;-79
2021/11/25 13:34:51;;;;;;;28.45;2.70;;;;;;;11.68;60.14;101085.56;5075612;28;20032;-79
2021/11/25 13:37:25;;;;;;;14.65;2.03;;;;;;;11.46;59.24;101096.22;5075761;28;20115;-79
2021/11/25 13:39:58;;;;;;;13.38;1.90;;;;;;;11.42;58.76;101098.41;5074225;28;20025;-80
2021/11/25 13:42:28;;;;;;;17.58;2.08;;;;;;;11.26;60.13;101093.16;5076739;28;20044;-80
2021/11/25 13:44:54;;;;;;;19.27;1.95;;;;;;;10.86;62.15;101097.81;5078876;28;20037;-81
2021/11/25 13:47:25;;;;;;;13.77;2.05;;;;;;;10.62;62.49;101096.09;5075626;28;20391;-81
2021/11/25 13:49:56;;;;;;;15.40;2.45;;;;;;;10.34;62.28;101098.41;5078527;28;20098;-80
2021/11/25 13:52:36;;;;;;;18.63;1.90;;;;;;;10.02;64.14;101100.16;5072671;28;20016;-80
2021/11/25 13:55:07;;;;;;;16.23;2.08;;;;;;;9.93;64.65;101101.19;5074495;28;20020;-79
2021/11/25 13:57:32;;;;;;;13.32;1.55;;;;;;;9.86;64.82;101094.81;5073114;28;20042;-78
2021/11/25 14:00:12;;;;;;;17.50;1.70;;;;;;;9.71;64.79;101096.53;5075514;28;20423;-79
2021/11/25 14:02:39;;;;;;;21.05;2.22;;;;;;;9.43;65.93;101092.34;5075375;28;20040;-79
2021/11/25 14:05:06;;;;;;;19.48;2.30;;;;;;;9.36;65.24;101085.97;5073778;28;20035;-80
2021/11/25 14:07:32;;;;;;;16.30;2.67;;;;;;;9.26;66.30;101082.59;5074502;28;20025;-80
2021/11/25 14:10:06;;;;;;;16.70;2.65;;;;;;;9.11;68.29;101078.91;5073728;28;20498;-80
2021/11/25 14:12:32;;;;;;;17.17;2.50;;;;;;;9.19;66.44;101081.63;5075763;28;20029;-79
2021/11/25 14:14:58;;;;;;;18.85;2.28;;;;;;;9.18;66.59;101083.44;5075511;28;20537;-79
2021/11/25 14:17:24;;;;;;;14.73;2.20;;;;;;;9.01;68.54;101076.38;5076223;28;20054;-78
2021/11/25 14:19:52;;;;;;;20.77;2.40;;;;;;;8.84;69.90;101080.88;5074490;28;20130;-79
2021/11/25 14:22:31;;;;;;;22.17;2.50;;;;;;;8.84;69.07;101085.41;5074361;28;20016;-78
2021/11/25 14:24:59;;;;;;;18.60;2.42;;;;;;;8.86;68.71;101086.91;5075638;28;20138;-78
2021/11/25 14:30:14;;;;;;;25.40;2.40;;;;;;;8.60;71.48;101089.69;5074286;28;20143;-77
2021/11/25 14:32:51;;;;;;;19.83;4.53;;;;;;;8.51;70.80;101088.84;5074561;28;20037;-78
2021/11/25 14:35:27;;;;;;;21.17;2.00;;;;;;;8.50;70.06;101081.78;5074315;28;20111;-78
2021/11/25 14:37:54;;;;;;;24.65;3.10;;;;;;;8.49;70.41;101090.84;5074882;28;20087;-77
2021/11/25 14:40:20;;;;;;;30.85;8.43;;;;;;;8.51;70.30;101083.47;5074630;28;20028;-78
2021/11/25 14:42:59;;;;;;;24.92;3.50;;;;;;;8.45;70.46;101086.81;5056727;28;20039;-77
2021/11/25 14:45:27;;;;;;;16.25;2.40;;;;;;;8.32;71.46;101081.00;5074020;28;20028;-78
2021/11/25 14:47:53;;;;;;;17.85;2.30;;;;;;;8.28;72.11;101079.66;5073817;28;20027;-78
2021/11/25 14:50:32;;;;;;;26.13;2.70;;;;;;;8.16;70.71;101073.72;5074428;28;20099;-78
2021/11/25 14:53:12;;;;;;;19.60;2.53;;;;;;;8.14;71.02;101081.97;5074535;28;20043;-77
2021/11/25 14:55:49;;;;;;;32.53;3.08;;;;;;;8.14;71.63;101076.59;5072931;28;20031;-77
2021/11/25 14:58:14;;;;;;;33.30;2.88;;;;;;;8.19;71.13;101081.47;5073146;28;20036;-78
2021/11/25 15:00:41;;;;;;;19.83;2.38;;;;;;;8.24;69.93;101080.97;5072384;28;20112;-78
2021/11/25 15:03:09;;;;;;;30.77;3.63;;;;;;;8.22;69.91;101083.00;5073152;28;20036;-79
2021/11/25 15:05:42;;;;;;;18.90;2.90;;;;;;;8.19;69.78;101083.31;5072613;28;20032;-78
2021/11/25 15:08:10;;;;;;;27.05;2.90;;;;;;;8.14;70.22;101081.13;5072913;28;20168;-78
2021/11/25 15:10:38;;;;;;;16.88;2.08;;;;;;;8.16;69.84;101083.63;5072691;28;20122;-77
2021/11/25 15:13:04;;;;;;;;;;;;;;;8.19;70.24;101083.31;5074954;28;20027;-77
2021/11/25 15:15:29;;;;;;;22.88;2.28;;;;;;;8.05;70.47;101074.84;5072630;28;20303;-77
2021/11/25 15:17:55;;;;;;;23.40;2.45;;;;;;;8.02;70.08;101069.81;5075075;28;20021;-79
2021/11/25 15:20:20;;;;;;;22.58;2.45;;;;;;;7.98;70.26;101076.53;5074515;28;20513;-78
2021/11/25 15:22:47;;;;;;;22.45;2.45;;;;;;;7.98;70.00;101062.25;5072714;28;20028;-77
2021/11/25 15:25:13;;;;;;;30.65;2.40;;;;;;;7.95;69.19;101066.09;5072443;28;20115;-77
2021/11/25 15:27:39;;;;;;;22.15;2.70;;;;;;;7.93;69.41;101065.44;5073825;28;20349;-78
2021/11/25 15:30:06;;;;;;;24.08;2.47;;;;;;;7.93;67.66;101062.75;5074215;28;20056;-78
2021/11/25 15:32:32;;;;;;;22.83;2.43;;;;;;;7.87;68.07;101068.72;5073485;28;20028;-77
2021/11/25 15:35:00;;;;;;;25.95;2.10;;;;;;;7.84;67.91;101069.06;5075116;28;20020;-78
2021/11/25 15:37:26;;;;;;;23.95;2.50;;;;;;;7.81;68.51;101070.22;5074516;28;20028;-78
2021/11/25 15:39:51;;;;;;;27.08;2.55;;;;;;;7.81;67.72;101064.00;5075248;28;20388;-77
2021/11/25 15:42:16;;;;;;;24.50;2.58;;;;;;;7.90;65.75;101080.00;5073094;28;20033;-77
2021/11/25 15:44:44;;;;;;;28.05;2.78;;;;;;;7.85;66.81;101076.09;5074140;28;20023;-78
2021/11/25 15:47:09;;;;;;;25.85;2.70;;;;;;;7.83;66.76;101073.56;5073217;28;20032;-79
2021/11/25 15:49:38;;;;;;;25.88;2.20;;;;;;;7.75;67.11;101076.22;5075149;28;20025;-77
2021/11/25 15:52:03;;;;;;;21.38;2.45;;;;;;;7.79;66.35;101082.06;5075012;28;20025;-77
2021/11/25 15:54:29;;;;;;;23.77;2.67;;;;;;;7.78;67.83;101080.41;5074780;28;20112;-77
2021/11/25 15:56:55;;;;;;;26.38;2.40;;;;;;;7.79;67.38;101082.06;5074854;28;20037;-77
2021/11/25 15:59:20;;;;;;;21.30;2.33;;;;;;;7.87;66.49;101079.44;5074109;28;20094;-77
2021/11/25 16:01:46;;;;;;;22.33;3.13;;;;;;;7.88;67.37;101087.34;5074099;28;20024;-77
2021/11/25 16:04:14;;;;;;;20.85;2.15;;;;;;;7.93;67.55;101086.88;5073044;28;20099;-77
2021/11/25 16:06:43;;;;;;;19.95;2.25;;;;;;;7.98;67.67;101071.16;5073441;28;20108;-77
2021/11/25 16:09:10;;;;;;;21.42;2.38;;;;;;;8.05;67.60;101076.72;5073444;28;20031;-77
2021/11/25 16:11:38;;;;;;;23.50;2.47;;;;;;;7.98;67.74;101084.56;5073513;28;20387;-78
2021/11/25 16:14:10;;;;;;;18.58;2.63;;;;;;;7.95;68.19;101081.34;5075344;28;20046;-78
2021/11/25 16:16:37;;;;;;;21.67;2.00;;;;;;;7.83;67.62;101094.19;5080627;28;20020;-78
2021/11/25 16:19:07;;;;;;;21.10;2.80;;;;;;;7.83;67.69;101078.94;5081522;28;20021;-77
2021/11/25 16:21:33;;;;;;;18.02;1.67;;;;;;;7.84;68.72;101087.81;5077388;28;20032;-78
2021/11/25 16:24:00;;;;;;;17.05;1.80;;;;;;;7.75;69.70;101086.09;5079524;28;20032;-79
2021/11/25 16:26:27;;;;;;;14.68;2.58;;;;;;;7.63;67.73;101088.16;5087844;28;20048;-78
2021/11/25 16:28:54;;;;;;;19.15;1.40;;;;;;;7.52;67.20;101075.88;5093525;28;20056;-78
2021/11/25 16:31:19;;;;;;;8.93;1.35;;;;;;;7.47;66.13;101095.09;5096804;28;20044;-79
2021/11/25 16:33:45;;;;;;;10.27;1.45;;;;;;;7.44;66.80;101078.50;5099600;28;20016;-77
2021/11/25 16:36:11;;;;;;;13.52;1.27;;;;;;;7.34;67.05;101083.09;5099669;28;20046;-81
2021/11/25 16:38:36;;;;;;;11.95;1.30;;;;;;;7.22;68.10;101090.53;5083053;28;20012;-79
2021/11/25 16:41:03;;;;;;;12.52;1.70;;;;;;;7.16;66.45;101081.28;5099192;28;20083;-83
2021/11/25 16:43:28;;;;;;;10.00;1.70;;;;;;;7.06;68.15;101083.22;5082680;28;20016;-80
2021/11/25 16:45:54;;;;;;;9.68;1.30;;;;;;;6.95;68.78;101072.72;5099074;28;20048;-82
2021/11/25 16:48:21;;;;;;;7.45;1.30;;;;;;;6.86;69.51;101073.63;5098207;28;20028;-82
2021/11/25 16:50:54;;;;;;;15.43;1.27;;;;;;;6.75;68.77;101061.31;5100163;28;20059;-82
2021/11/25 16:53:22;;;;;;;14.00;1.90;;;;;;;6.67;70.48;101058.56;5099654;28;20033;-81
2021/11/25 16:55:48;;;;;;;13.25;1.63;;;;;;;6.63;70.72;101062.53;5097899;28;20043;-78
2021/11/25 16:58:18;;;;;;;13.82;1.48;;;;;;;6.56;70.36;101062.31;5079570;28;20075;-77
2021/11/25 17:00:45;;;;;;;8.35;1.90;;;;;;;6.48;70.38;101059.53;5095712;28;20035;-79
2021/11/25 17:03:11;;;;;;;11.25;1.40;;;;;;;6.42;72.08;101057.44;5098190;28;20025;-82
2021/11/25 17:05:36;;;;;;;14.57;3.78;;;;;;;6.40;71.79;101059.41;5098060;28;20013;-80
2021/11/25 17:08:02;;;;;;;17.85;2.30;;;;;;;6.35;71.97;101063.41;5097988;28;20171;-79
2021/11/25 17:10:28;;;;;;;12.57;2.40;;;;;;;6.36;72.03;101059.72;5095304;28;20036;-80
2021/11/25 17:12:53;;;;;;;24.60;3.25;;;;;;;6.40;72.35;101062.09;5085057;28;20029;-77
2021/11/25 17:15:21;;;;;;;16.40;2.40;;;;;;;6.45;72.73;101062.50;5097035;28;20024;-80
2021/11/25 17:17:49;;;;;;;19.58;2.13;;;;;;;6.45;74.16;101055.34;5096845;28;20028;-81
2021/11/25 17:20:14;;;;;;;16.15;2.83;;;;;;;6.50;75.32;101054.88;5086567;28;20040;-76
2021/11/25 17:22:40;;;;;;;27.70;3.08;;;;;;;6.58;75.29;101054.94;5087790;28;20361;-80
2021/11/25 17:25:07;;;;;;;26.17;2.92;;;;;;;6.62;76.76;101056.34;5076698;28;20403;-78
2021/11/25 17:27:32;;;;;;;21.48;2.70;;;;;;;6.64;77.29;101057.03;5076726;28;20024;-78
2021/11/25 17:29:57;;;;;;;24.42;3.85;;;;;;;6.70;77.56;101066.28;5077648;28;20059;-78
2021/11/25 17:32:23;;;;;;;21.80;4.07;;;;;;;6.70;76.85;101058.25;5074894;28;20055;-78
2021/11/25 17:34:50;;;;;;;31.55;4.30;;;;;;;6.73;77.23;101053.44;5073009;28;20024;-79
2021/11/25 17:37:15;;;;;;;25.15;2.95;;;;;;;6.80;76.74;101049.19;5075915;28;20055;-76
2021/11/25 17:39:42;;;;;;;20.25;2.83;;;;;;;6.82;77.19;101047.19;5077814;28;20020;-79
2021/11/25 17:42:07;;;;;;;18.98;3.03;;;;;;;6.95;75.20;101051.31;5079910;28;20427;-79
2021/11/25 17:44:33;;;;;;;16.80;2.63;;;;;;;7.11;73.53;101059.50;5077940;28;20077;-76
2021/11/25 17:46:59;;;;;;;23.75;2.50;;;;;;;7.17;75.17;101048.16;5074722;28;20499;-79
2021/11/25 17:49:24;;;;;;;11.15;2.05;;;;;;;7.19;75.01;101042.69;5078598;28;20013;-81
2021/11/25 17:51:49;;;;;;;14.25;1.80;;;;;;;7.15;73.73;101046.66;5092175;28;20035;-83
2021/11/25 17:54:15;;;;;;;14.73;1.90;;;;;;;7.16;73.39;101038.47;5075877;28;20440;-79
2021/11/25 17:56:40;;;;;;;10.50;1.80;;;;;;;7.12;73.47;101042.44;5074242;28;20716;-77
2021/11/25 17:59:06;;;;;;;21.25;2.13;;;;;;;7.18;72.95;101041.81;5069899;28;20075;-78
2021/11/25 18:01:31;;;;;;;12.65;1.80;;;;;;;7.21;73.14;101040.66;5076086;28;20059;-78
2021/11/25 18:03:57;;;;;;;12.43;1.88;;;;;;;7.19;72.61;101038.16;5073312;28;20059;-77
2021/11/25 18:06:22;;;;;;;8.90;2.05;;;;;;;7.21;73.62;101041.53;5058471;28;20059;-76
2021/11/25 18:08:47;;;;;;;9.82;1.30;;;;;;;7.20;74.13;101030.97;5075362;28;20052;-76
2021/11/25 18:11:13;;;;;;;8.82;1.35;;;;;;;7.20;74.46;101028.28;5076333;28;20024;-76
2021/11/25 18:13:40;;;;;;;10.18;2.22;;;;;;;7.25;74.97;101037.53;5058042;28;20085;-77
2021/11/25 18:16:06;;;;;;;10.57;1.40;;;;;;;7.30;75.10;101022.84;5074402;28;20021;-77
2021/11/25 18:18:32;;;;;;;9.25;1.50;;;;;;;7.23;75.74;101028.81;5074935;28;20036;-75
2021/11/25 18:20:58;;;;;;;14.50;1.73;;;;;;;7.13;76.88;101028.03;5077603;28;20029;-78
2021/11/25 18:23:23;;;;;;;18.20;1.98;;;;;;;7.06;77.66;101021.66;5058705;28;20025;-77
2021/11/25 18:26:09;;;;;;;8.60;1.92;;;;;;;7.06;77.87;101026.13;5076304;28;20103;-77
2021/11/25 18:28:34;;;;;;;21.05;3.33;;;;;;;7.00;78.32;101022.25;5071034;28;20059;-77
2021/11/25 18:31:00;;;;;;;13.05;1.58;;;;;;;7.02;78.09;101022.94;5084121;28;20416;-77
2021/11/25 18:33:25;;;;;;;21.52;1.75;;;;;;;7.00;78.36;101023.13;5085817;28;20028;-76
2021/11/25 18:35:50;;;;;;;12.48;1.33;;;;;;;6.95;78.20;101021.88;5086129;28;20037;-78
2021/11/25 18:38:16;;;;;;;15.10;1.80;;;;;;;6.92;77.54;101014.16;5078301;28;20025;-77
2021/11/25 18:40:41;;;;;;;8.60;1.77;;;;;;;6.88;78.23;101028.84;5079628;28;20036;-78
2021/11/25 18:43:06;;;;;;;21.48;2.17;;;;;;;6.82;79.01;101020.44;5079417;28;20047;-77
2021/11/25 18:45:32;;;;;;;15.25;1.58;;;;;;;6.82;78.92;101023.13;5079417;28;20043;-78
2021/11/25 18:48:00;;;;;;;8.65;1.27;;;;;;;6.85;79.13;101030.00;5086308;28;20032;-76
2021/11/25 18:50:26;;;;;;;;;;;;;;;6.88;78.53;101028.84;5083024;28;20032;-77
2021/11/25 18:52:51;;;;;;;10.20;1.60;;;;;;;6.90;78.05;101026.84;5082705;28;20303;-76
2021/11/25 18:55:16;;;;;;;6.75;1.40;;;;;;;6.92;77.30;101030.22;5082153;28;20043;-77
2021/11/25 18:57:43;;;;;;;14.18;1.92;;;;;;;6.94;76.88;101025.56;5078318;28;20028;-78
2021/11/25 19:00:09;;;;;;;22.85;2.13;;;;;;;6.92;76.59;101019.50;5081718;28;20028;-78
2021/11/25 19:02:35;;;;;;;25.98;3.70;;;;;;;6.88;76.67;101026.19;5084692;28;20055;-79
2021/11/25 19:05:00;;;;;;;18.27;1.92;;;;;;;6.78;76.85;101024.41;5082732;28;20035;-77
2021/11/25 19:07:26;;;;;;;9.50;1.52;;;;;;;6.78;77.00;101024.41;5080528;28;20028;-77
2021/11/25 19:09:51;;;;;;;10.63;1.20;;;;;;;6.74;76.45;101016.81;5075906;28;20028;-76
2021/11/25 19:12:17;;;;;;;15.43;1.80;;;;;;;6.67;77.09;101018.44;5077183;28;20024;-77
2021/11/25 19:14:42;;;;;;;11.90;1.40;;;;;;;6.60;76.61;101010.19;5078379;28;20029;-77
2021/11/25 19:17:07;;;;;;;20.52;2.35;;;;;;;6.55;76.57;100999.09;5083492;28;20044;-77
2021/11/25 19:19:33;;;;;;;14.75;2.00;;;;;;;6.51;76.62;101006.59;5081064;28;20083;-76
2021/11/25 19:21:58;;;;;;;16.50;2.65;;;;;;;6.46;76.07;101002.69;5084834;28;20086;-78
2021/11/25 19:24:23;;;;;;;20.45;2.63;;;;;;;6.40;76.04;101003.28;5080060;28;20047;-77
2021/11/25 19:26:49;;;;;;;8.52;1.70;;;;;;;6.32;77.13;100996.03;5075671;28;20020;-78
2021/11/25 19:29:14;;;;;;;7.50;2.08;;;;;;;6.26;77.17;101008.16;5064575;28;20055;-78
2021/11/25 19:31:42;;;;;;;16.45;2.70;;;;;;;6.18;78.64;100996.53;5074486;28;20032;-76
2021/11/25 19:34:07;;;;;;;21.05;3.72;;;;;;;6.12;78.29;100995.31;5075707;28;20116;-79
2021/11/25 19:36:33;;;;;;;18.50;3.75;;;;;;;6.04;79.98;100992.53;5092768;28;20047;-80
2021/11/25 19:38:58;;;;;;;15.18;3.42;;;;;;;5.98;80.44;100982.44;5094287;28;20050;-80
2021/11/25 19:41:24;;;;;;;23.08;4.60;;;;;;;5.93;80.92;100985.53;5093062;28;20030;-77
2021/11/25 19:43:49;;;;;;;17.70;3.30;;;;;;;5.86;81.40;100981.75;5095406;28;20025;-76
2021/11/25 19:46:16;;;;;;;21.10;3.70;;;;;;;5.79;81.68;100978.00;5091956;28;20036;-77
2021/11/25 19:48:42;;;;;;;13.27;2.55;;;;;;;5.74;82.08;100975.78;5091301;28;20092;-77
2021/11/25 19:51:08;;;;;;;17.05;3.08;;;;;;;5.67;82.77;100980.03;5088756;28;20563;-78
2021/11/25 19:53:41;;;;;;;22.48;3.42;;;;;;;5.61;83.01;100975.25;5091183;28;20077;-78
2021/11/25 19:56:06;;;;;;;8.20;1.70;;;;;;;5.56;83.15;100973.03;5083943;28;20028;-76
2021/11/25 19:58:32;;;;;;;19.25;2.30;;;;;;;5.57;82.74;100974.72;5084040;28;20031;-77
2021/11/25 20:00:57;;;;;;;14.98;2.50;;;;;;;5.59;82.90;100979.91;5085967;28;20107;-79
2021/11/25 20:03:22;;;;;;;22.15;2.67;;;;;;;5.65;82.72;100976.66;5088882;28;20048;-77
2021/11/25 20:05:48;;;;;;;24.23;3.90;;;;;;;5.71;82.25;100970.72;5087842;28;20025;-79
2021/11/25 20:08:13;;;;;;;11.75;3.42;;;;;;;5.80;81.63;100961.84;5089248;28;20039;-78
2021/11/25 20:10:42;;;;;;;23.63;3.85;;;;;;;5.99;81.39;100962.75;5066512;28;20035;-78
2021/11/25 20:13:07;;;;;;;13.20;2.78;;;;;;;6.09;80.86;100960.88;5083972;28;20064;-76
2021/11/25 20:15:33;;;;;;;17.80;2.70;;;;;;;6.32;80.07;100966.63;5079739;28;20142;-78
2021/11/25 20:18:00;;;;;;;19.27;2.70;;;;;;;6.40;80.23;100965.84;5076567;28;20466;-77
2021/11/25 20:20:27;;;;;;;16.50;2.58;;;;;;;6.52;79.61;100965.47;5075161;28;20031;-79
2021/11/25 20:22:59;;;;;;;21.42;2.20;;;;;;;6.64;79.03;100966.13;5061542;28;20116;-77
2021/11/25 20:25:52;;;;;;;11.38;1.73;;;;;;;6.76;79.58;100959.50;5086616;28;20041;-77
2021/11/25 20:28:17;;;;;;;20.38;1.73;;;;;;;6.85;79.21;100959.59;5085068;28;20052;-77
2021/11/25 20:30:43;;;;;;;17.58;1.98;;;;;;;6.86;79.53;100953.25;5076915;28;20487;-77
2021/11/25 20:33:10;;;;;;;12.43;1.60;;;;;;;6.84;79.84;100940.00;5060012;28;20483;-77
2021/11/25 20:35:39;;;;;;;19.40;2.13;;;;;;;6.84;78.79;100941.84;5091462;28;20059;-78
2021/11/25 20:38:05;;;;;;;15.45;2.03;;;;;;;6.80;79.63;100950.19;5099369;28;20028;-77
2021/11/25 20:40:32;;;;;;;18.17;1.60;;;;;;;6.76;79.85;100939.94;5097838;28;20392;-77
2021/11/25 20:42:58;;;;;;;14.55;1.75;;;;;;;6.74;79.60;100952.63;5084188;28;20046;-78
2021/11/25 20:45:24;;;;;;;13.60;1.65;;;;;;;6.76;79.26;100945.31;5101720;28;20072;-78
2021/11/25 20:47:51;;;;;;;8.27;1.60;;;;;;;6.78;77.15;100932.63;5104035;28;20020;-79
2021/11/25 20:50:16;;;;;;;8.60;1.20;;;;;;;6.79;76.78;100953.88;5102963;28;20020;-77
2021/11/25 20:52:42;;;;;;;7.85;1.10;;;;;;;6.81;77.56;100937.66;5099747;28;20074;-77
2021/11/25 20:55:09;;;;;;;12.05;1.52;;;;;;;6.74;78.48;100937.44;5080146;28;20024;-77
2021/11/25 20:57:34;;;;;;;5.00;0.82;;;;;;;6.66;80.25;100932.03;5096514;28;20028;-77
2021/11/25 21:00:00;;;;;;;5.97;1.27;;;;;;;6.58;81.02;100927.47;5098143;28;20031;-77
2021/11/25 21:02:25;;;;;;;10.98;1.27;;;;;;;6.52;81.79;100928.06;5096073;28;20027;-77
2021/11/25 21:04:50;;;;;;;10.18;1.95;;;;;;;6.44;81.67;100924.47;5079435;28;20017;-78
2021/11/25 21:07:16;;;;;;;9.40;1.00;;;;;;;6.38;81.76;100913.41;5082667;28;20046;-78
2021/11/25 21:09:41;;;;;;;10.57;1.50;;;;;;;6.34;82.01;100906.66;5103254;28;20020;-78
2021/11/25 21:12:07;;;;;;;11.85;1.30;;;;;;;6.28;82.03;100906.44;5102025;28;20077;-78
2021/11/25 21:14:32;;;;;;;8.02;1.38;;;;;;;6.20;82.22;100904.53;5103110;28;20103;-78
2021/11/25 21:16:58;;;;;;;7.63;2.17;;;;;;;6.11;82.22;100897.44;5103654;28;20032;-78
2021/11/25 21:19:23;;;;;;;9.40;1.77;;;;;;;6.04;82.89;100896.34;5102001;28;20071;-79
2021/11/25 21:21:49;;;;;;;5.95;1.42;;;;;;;6.01;82.53;100891.31;5102576;28;20023;-78
2021/11/25 21:24:16;;;;;;;7.22;1.60;;;;;;;5.96;82.80;100889.09;5101450;28;20039;-78
2021/11/25 21:26:47;;;;;;;5.57;1.40;;;;;;;5.90;83.53;100889.69;5103444;28;20316;-77
2021/11/25 21:29:14;;;;;;;10.63;2.38;;;;;;;5.87;84.58;100888.16;5104500;28;20103;-77
2021/11/25 21:31:39;;;;;;;14.63;2.47;;;;;;;5.84;84.62;100885.75;5101492;28;20035;-77
2021/11/25 21:34:07;;;;;;;14.25;2.50;;;;;;;5.88;84.93;100891.66;5083894;28;20023;-78
2021/11/25 21:36:35;;;;;;;15.93;3.10;;;;;;;5.91;84.70;100880.66;5097052;28;20391;-77
2021/11/25 21:39:01;;;;;;;15.07;2.40;;;;;;;5.95;84.71;100871.41;5099471;28;20471;-77
2021/11/25 21:41:28;;;;;;;14.75;3.60;;;;;;;5.95;84.91;100874.06;5098242;28;20077;-77
2021/11/25 21:43:54;;;;;;;9.47;2.50;;;;;;;5.96;84.19;100869.56;5100900;28;20035;-76
2021/11/25 21:46:19;;;;;;;16.55;2.55;;;;;;;5.99;83.79;100877.25;5100740;28;20286;-77
2021/11/25 21:48:45;;;;;;;10.68;1.95;;;;;;;6.06;83.54;100867.66;5100844;28;20032;-77
2021/11/25 21:51:11;;;;;;;12.85;2.03;;;;;;;6.17;83.54;100858.56;5101371;28;20105;-76
2021/11/25 21:53:37;;;;;;;14.88;2.38;;;;;;;6.17;83.99;100854.06;5088456;28;20131;-76
2021/11/25 21:56:04;;;;;;;10.82;1.77;;;;;;;6.19;82.69;100849.41;5106230;28;20543;-77
2021/11/25 21:58:29;;;;;;;6.72;1.10;;;;;;;6.23;82.02;100852.59;5104888;28;20016;-76
2021/11/25 22:00:55;;;;;;;11.00;1.45;;;;;;;6.27;81.25;100852.16;5122283;28;20066;-77
2021/11/25 22:03:20;;;;;;;11.70;1.17;;;;;;;6.28;81.05;100845.81;5107081;28;20456;-76
2021/11/25 22:05:45;;;;;;;22.00;1.23;;;;;;;6.31;80.29;100839.31;5091025;28;20039;-76
2021/11/25 22:08:11;;;;;;;11.70;1.10;;;;;;;6.30;80.55;100849.16;5108160;28;20028;-78
2021/11/25 22:10:36;;;;;;;9.82;1.20;;;;;;;6.28;80.64;100840.47;5109018;28;20028;-76
2021/11/25 22:13:03;;;;;;;13.93;1.08;;;;;;;6.24;80.92;100835.56;5106253;28;20067;-77
2021/11/25 22:15:29;;;;;;;11.95;1.25;;;;;;;6.17;81.16;100839.88;5112658;28;20062;-75
2021/11/25 22:17:54;;;;;;;10.60;1.23;;;;;;;6.13;80.03;100839.31;5116904;28;20046;-75
2021/11/25 22:20:30;;;;;;;6.75;1.02;;;;;;;6.09;80.89;100832.63;5098013;28;20028;-76
2021/11/25 22:25:39;;;;;;;8.70;1.35;;;;;;;6.13;81.49;100836.66;5107033;28;20043;-77
2021/11/25 22:28:04;;;;;;;8.07;0.93;;;;;;;6.12;80.33;100829.63;5105268;28;20032;-76
2021/11/25 22:30:30;;;;;;;10.43;1.10;;;;;;;6.18;80.10;100822.84;5090267;28;20048;-76
2021/11/25 22:32:57;;;;;;;8.15;1.15;;;;;;;6.24;79.19;100823.06;5083410;28;20036;-76
2021/11/25 22:35:22;;;;;;;7.97;1.15;;;;;;;6.32;78.43;100809.78;5085873;28;20111;-76
2021/11/25 22:37:48;;;;;;;11.85;1.77;;;;;;;6.37;78.07;100823.50;5085056;28;20020;-76
2021/11/25 22:40:14;;;;;;;10.10;1.95;;;;;;;6.35;77.98;100812.13;5085600;28;20032;-76
2021/11/25 22:42:40;;;;;;;14.50;1.30;;;;;;;6.43;77.91;100810.53;5083776;28;20032;-76
2021/11/25 22:45:06;;;;;;;11.55;1.25;;;;;;;6.41;78.42;100807.16;5063566;28;20040;-76
2021/11/25 22:47:31;;;;;;;12.18;1.42;;;;;;;6.41;77.04;100807.16;5066666;28;20029;-75
2021/11/25 22:49:57;;;;;;;11.77;1.70;;;;;;;6.50;77.16;100801.72;5084799;28;20392;-75
2021/11/25 22:52:22;;;;;;;14.30;1.67;;;;;;;6.49;77.66;100791.16;5082896;28;20031;-76
2021/11/25 22:54:48;;;;;;;7.05;2.20;;;;;;;6.52;77.63;100790.84;5086228;28;20021;-75
2021/11/25 22:57:13;;;;;;;18.75;1.55;;;;;;;6.55;78.00;100777.16;5085811;28;20388;-77
2021/11/25 22:59:38;;;;;;;7.13;1.95;;;;;;;6.57;78.04;100780.53;5088961;28;20037;-77
2021/11/25 23:02:04;;;;;;;10.90;1.45;;;;;;;6.63;77.00;100779.06;5072125;28;20032;-77
2021/11/25 23:04:29;;;;;;;6.53;0.68;;;;;;;6.64;76.00;100776.25;5089614;28;20084;-77
2021/11/25 23:06:55;;;;;;;7.00;0.70;;;;;;;6.72;75.55;100776.28;5094017;28;20080;-77